Time;durP1;ratioP1;P1;durP2;ratioP2;P2;SDS_P1;SDS_P2;PMS_P1;PMS_P2;Temp;Humidity;BMP_temperature;BMP_pressure;BME280_temperature;BME280_humidity;BME280_pressure;Samples;Min_cycle;Max_cycle;Signal;HPM_P1;HPM_P2
2021/08/02 00:00:23;;;;;;;;;4.00;1.33;;;;;;;;5025831;27;45686;-83
2021/08/02 00:03:07;;;;;;;;;2.00;2.00;;;;;;;;5025133;27;45466;-83
2021/08/02 00:05:35;;;;;;;;;2.00;1.25;;;;;;;;5028921;27;45474;-82
2021/08/02 00:08:02;;;;;;;;;2.00;1.00;;;;;;;;5015215;27;47022;-83
2021/08/02 00:10:32;;;;;;;;;4.00;2.25;;;;;;;;5029813;28;45436;-83
2021/08/02 00:13:05;;;;;;;;;2.00;2.00;;;;;;;;5027533;27;45667;-83
2021/08/02 00:15:30;;;;;;;;;2.00;2.00;;;;;;;;5028376;27;45411;-83
2021/08/02 00:17:56;;;;;;;;;0.50;0.50;;;;;;;;5012774;27;46247;-83
2021/08/02 00:20:24;;;;;;;;;3.75;2.00;;;;;;;;5025562;27;45660;-82
2021/08/02 00:22:49;;;;;;;;;4.00;2.00;;;;;;;;5020046;28;45598;-82
2021/08/02 00:25:15;;;;;;;;;2.00;2.00;;;;;;;;5026351;27;45705;-83
2021/08/02 00:27:41;;;;;;;;;4.25;2.00;;;;;;;;5022594;27;47290;-83
2021/08/02 00:30:07;;;;;;;;;2.25;2.00;;;;;;;;5031189;27;45582;-82
2021/08/02 00:32:33;;;;;;;;;2.50;1.75;;;;;;;;5029573;27;45571;-82
2021/08/02 00:34:59;;;;;;;;;3.50;2.75;;;;;;;;5023697;27;45557;-82
2021/08/02 00:37:50;;;;;;;;;2.00;2.00;;;;;;;;5027450;28;46052;-82
2021/08/02 00:40:21;;;;;;;;;3.25;2.75;;;;;;;;5076457;27;45518;-83
2021/08/02 00:43:18;;;;;;;;;2.00;2.00;;;;;;;;5069062;27;45484;-83
2021/08/02 00:45:43;;;;;;;;;3.25;3.00;;;;;;;;5072069;27;45562;-83
2021/08/02 00:48:10;;;;;;;;;3.00;3.00;;;;;;;;5073173;27;45391;-83
2021/08/02 00:50:42;;;;;;;;;3.50;2.00;;;;;;;;5074121;27;45474;-83
2021/08/02 00:53:12;;;;;;;;;3.75;2.00;;;;;;;;5073014;27;45353;-83
2021/08/02 00:55:39;;;;;;;;;2.25;2.00;;;;;;;;5075288;27;45617;-83
2021/08/02 00:58:05;;;;;;;;;2.50;2.25;;;;;;;;5072750;27;46305;-82
2021/08/02 01:00:31;;;;;;;;;4.00;2.00;;;;;;;;5076264;27;45829;-83
2021/08/02 01:02:56;;;;;;;;;4.00;2.50;;;;;;;;5065230;27;45446;-82
2021/08/02 01:05:23;;;;;;;;;2.50;2.50;;;;;;;;5069032;27;45773;-83
2021/08/02 01:08:09;;;;;;;;;2.00;2.00;;;;;;;;5068196;27;46113;-83
2021/08/02 01:10:35;;;;;;;;;1.25;1.25;;;;;;;;5073666;27;45632;-83
2021/08/02 01:13:02;;;;;;;;;2.00;2.00;;;;;;;;5068822;27;45380;-83
2021/08/02 01:15:28;;;;;;;;;4.00;1.50;;;;;;;;5071772;27;45569;-83
2021/08/02 01:17:55;;;;;;;;;4.00;2.00;;;;;;;;5040407;27;45472;-83
2021/08/02 01:20:22;;;;;;;;;3.25;2.00;;;;;;;;5046728;28;46268;-82
2021/08/02 01:22:48;;;;;;;;;3.00;2.00;;;;;;;;5029832;28;45472;-83
2021/08/02 01:25:32;;;;;;;;;4.75;2.00;;;;;;;;5033145;27;45607;-83
2021/08/02 01:28:12;;;;;;;;;3.00;2.25;;;;;;;;5029436;27;45516;-83
2021/08/02 01:30:37;;;;;;;;;2.00;2.00;;;;;;;;5036412;28;45438;-83
2021/08/02 01:33:03;;;;;;;;;3.00;2.00;;;;;;;;5052474;27;45368;-82
2021/08/02 01:35:28;;;;;;;;;2.33;2.00;;;;;;;;5034755;27;45563;-83
2021/08/02 01:37:53;;;;;;;;;1.00;1.00;;;;;;;;5038197;27;46579;-83
2021/08/02 01:40:18;;;;;;;;;3.33;2.00;;;;;;;;5030609;27;46681;-82
2021/08/02 01:42:44;;;;;;;;;2.33;2.33;;;;;;;;5027416;27;45710;-83
2021/08/02 01:45:09;;;;;;;;;4.33;3.00;;;;;;;;5035734;27;45354;-83
2021/08/02 01:47:44;;;;;;;;;3.00;2.00;;;;;;;;5062743;27;46066;-83
2021/08/02 01:50:28;;;;;;;;;2.00;2.00;;;;;;;;5056514;27;45534;-82
2021/08/02 01:52:57;;;;;;;;;2.00;2.00;;;;;;;;5014627;28;45477;-83
2021/08/02 01:55:24;;;;;;;;;2.50;1.00;;;;;;;;5022295;28;45448;-83
2021/08/02 01:58:00;;;;;;;;;2.50;2.50;;;;;;;;5028072;27;46168;-82
2021/08/02 02:00:27;;;;;;;;;2.00;2.00;;;;;;;;5030882;27;45732;-83
2021/08/02 02:03:01;;;;;;;;;2.50;2.50;;;;;;;;5036179;27;45445;-84
2021/08/02 02:05:37;;;;;;;;;3.00;3.00;;;;;;;;5047820;28;45638;-83
2021/08/02 02:08:02;;;;;;;;;2.00;2.00;;;;;;;;5032774;27;46060;-83
2021/08/02 02:10:29;;;;;;;;;4.00;2.00;;;;;;;;5030051;28;45462;-83
2021/08/02 02:12:55;;;;;;;;;4.00;2.00;;;;;;;;5029842;27;45535;-83
2021/08/02 02:15:20;;;;;;;;;4.50;3.00;;;;;;;;5039866;27;45486;-83
2021/08/02 02:17:46;;;;;;;;;2.50;2.50;;;;;;;;5033216;27;45409;-83
2021/08/02 02:20:12;;;;;;;;;3.75;3.25;;;;;;;;5016820;27;45521;-83
2021/08/02 02:22:38;;;;;;;;;1.00;1.00;;;;;;;;5034573;28;45474;-83
2021/08/02 02:25:03;;;;;;;;;3.50;2.00;;;;;;;;5031662;27;45282;-83
2021/08/02 02:27:29;;;;;;;;;3.00;2.25;;;;;;;;5029483;27;45487;-83
2021/08/02 02:29:55;;;;;;;;;2.00;2.00;;;;;;;;5035990;27;45452;-83
2021/08/02 02:32:21;;;;;;;;;2.25;2.00;;;;;;;;5051314;28;45423;-81
2021/08/02 02:34:48;;;;;;;;;4.75;2.75;;;;;;;;5052343;27;46789;-82
2021/08/02 02:37:14;;;;;;;;;3.75;3.00;;;;;;;;5016845;27;48318;-83
2021/08/02 02:39:39;;;;;;;;;5.00;2.00;;;;;;;;5030727;27;45483;-81
2021/08/02 02:42:05;;;;;;;;;4.25;2.00;;;;;;;;5036846;27;45323;-82
2021/08/02 02:44:31;;;;;;;;;3.00;2.00;;;;;;;;5098428;27;45516;-82
2021/08/02 02:46:56;;;;;;;;;2.00;2.00;;;;;;;;5015390;27;47318;-83
2021/08/02 02:49:22;;;;;;;;;2.50;2.50;;;;;;;;5037096;28;45540;-82
2021/08/02 02:51:48;;;;;;;;;4.00;2.50;;;;;;;;5031772;27;45389;-83
2021/08/02 02:54:13;;;;;;;;;2.00;2.00;;;;;;;;5039009;27;45748;-83
2021/08/02 02:56:39;;;;;;;;;6.25;2.50;;;;;;;;5021427;27;46960;-83
2021/08/02 02:59:04;;;;;;;;;2.00;2.00;;;;;;;;5030464;28;45647;-83
2021/08/02 03:01:34;;;;;;;;;3.00;1.50;;;;;;;;5034901;28;45736;-83
2021/08/02 03:04:00;;;;;;;;;1.00;1.00;;;;;;;;5047941;27;45594;-83
2021/08/02 03:06:28;;;;;;;;;3.00;2.00;;;;;;;;5033158;27;45931;-83
2021/08/02 03:08:53;;;;;;;;;2.25;2.00;;;;;;;;5035437;27;45398;-82
2021/08/02 03:11:20;;;;;;;;;2.25;2.00;;;;;;;;5017003;27;45421;-82
2021/08/02 03:13:45;;;;;;;;;2.00;2.00;;;;;;;;5036055;28;45298;-82
2021/08/02 03:16:10;;;;;;;;;3.00;2.00;;;;;;;;5032330;27;45621;-82
2021/08/02 03:18:36;;;;;;;;;2.67;2.33;;;;;;;;5034891;27;45290;-83
2021/08/02 03:21:02;;;;;;;;;4.00;2.25;;;;;;;;5033205;27;45435;-82
2021/08/02 03:23:46;;;;;;;;;2.00;2.00;;;;;;;;5032245;27;45406;-83
2021/08/02 03:26:16;;;;;;;;;3.00;2.00;;;;;;;;5019882;27;47626;-82
2021/08/02 03:28:53;;;;;;;;;3.50;3.00;;;;;;;;5031079;28;45298;-83
2021/08/02 03:31:24;;;;;;;;;2.00;2.00;;;;;;;;5033927;27;45315;-82
2021/08/02 03:33:52;;;;;;;;;2.00;2.00;;;;;;;;5026647;27;45500;-83
2021/08/02 03:36:18;;;;;;;;;3.00;3.00;;;;;;;;5035599;27;46206;-82
2021/08/02 03:38:47;;;;;;;;;2.25;2.25;;;;;;;;5016492;27;45667;-82
2021/08/02 03:41:13;;;;;;;;;2.50;2.50;;;;;;;;5033837;27;45571;-83
2021/08/02 03:43:40;;;;;;;;;3.25;2.00;;;;;;;;5035237;28;45565;-83
2021/08/02 03:46:06;;;;;;;;;3.00;3.00;;;;;;;;5030495;27;46398;-83
2021/08/02 03:48:32;;;;;;;;;2.25;2.25;;;;;;;;5032573;27;45512;-83
2021/08/02 03:50:57;;;;;;;;;4.00;2.75;;;;;;;;5035655;27;45485;-82
2021/08/02 03:53:22;;;;;;;;;5.00;3.25;;;;;;;;5028331;28;46653;-82
2021/08/02 03:55:49;;;;;;;;;3.25;3.00;;;;;;;;5035389;28;45600;-83
2021/08/02 03:58:15;;;;;;;;;3.50;2.00;;;;;;;;5035472;28;45433;-83
2021/08/02 04:00:40;;;;;;;;;3.00;3.00;;;;;;;;5030973;27;45477;-83
2021/08/02 04:03:05;;;;;;;;;4.00;3.00;;;;;;;;5059450;28;45596;-82
2021/08/02 04:05:31;;;;;;;;;5.75;4.00;;;;;;;;5047391;27;45295;-83
2021/08/02 04:07:58;;;;;;;;;3.50;2.00;;;;;;;;5029836;27;46208;-80
2021/08/02 04:10:24;;;;;;;;;2.25;2.25;;;;;;;;5058645;28;48551;-83
2021/08/02 04:12:49;;;;;;;;;3.00;3.00;;;;;;;;5039576;28;45312;-83
2021/08/02 04:15:15;;;;;;;;;3.00;3.00;;;;;;;;5050156;27;46453;-83
2021/08/02 04:17:40;;;;;;;;;4.67;3.00;;;;;;;;5023310;28;45308;-83
2021/08/02 04:20:06;;;;;;;;;4.00;3.33;;;;;;;;5109840;27;45267;-83
2021/08/02 04:22:31;;;;;;;;;2.25;2.00;;;;;;;;5035531;28;45382;-83
2021/08/02 04:24:56;;;;;;;;;3.00;3.00;;;;;;;;5036418;27;46158;-83
2021/08/02 04:27:22;;;;;;;;;2.67;2.67;;;;;;;;5033398;27;45560;-83
2021/08/02 04:29:47;;;;;;;;;6.00;3.00;;;;;;;;5034451;27;45604;-83
2021/08/02 04:32:12;;;;;;;;;3.00;3.00;;;;;;;;5035413;27;45431;-82
2021/08/02 04:34:37;;;;;;;;;3.00;2.00;;;;;;;;5026202;28;46175;-81
2021/08/02 04:37:03;;;;;;;;;2.00;2.00;;;;;;;;5030891;27;45581;-83
2021/08/02 04:39:28;;;;;;;;;4.00;3.00;;;;;;;;5031809;27;45365;-83
2021/08/02 04:41:53;;;;;;;;;3.00;3.00;;;;;;;;5022526;27;45534;-83
2021/08/02 04:44:18;;;;;;;;;5.00;3.33;;;;;;;;5037708;27;46161;-82
2021/08/02 04:46:44;;;;;;;;;6.67;2.00;;;;;;;;5036250;27;45470;-83
2021/08/02 04:49:09;;;;;;;;;4.67;3.00;;;;;;;;5033507;27;45450;-81
2021/08/02 04:51:34;;;;;;;;;2.00;1.67;;;;;;;;5028097;27;45366;-84
2021/08/02 04:53:59;;;;;;;;;5.67;3.00;;;;;;;;5031894;27;45251;-82
2021/08/02 04:56:24;;;;;;;;;5.00;3.33;;;;;;;;5034426;27;45701;-83
2021/08/02 04:58:50;;;;;;;;;3.00;3.00;;;;;;;;5032831;28;45365;-83
2021/08/02 05:01:15;;;;;;;;;2.00;2.00;;;;;;;;5033858;27;45665;-83
2021/08/02 05:03:40;;;;;;;;;7.75;4.00;;;;;;;;5029559;27;46075;-84
2021/08/02 05:06:05;;;;;;;;;3.00;3.00;;;;;;;;5035812;27;45381;-84
2021/08/02 05:08:31;;;;;;;;;3.00;3.00;;;;;;;;5035554;28;45726;-83
2021/08/02 05:10:56;;;;;;;;;3.00;3.00;;;;;;;;5032596;27;45402;-81
2021/08/02 05:13:21;;;;;;;;;4.00;2.67;;;;;;;;5034749;28;45449;-84
2021/08/02 05:15:46;;;;;;;;;2.00;2.00;;;;;;;;5032722;27;45436;-83
2021/08/02 05:18:14;;;;;;;;;2.00;2.00;;;;;;;;5037280;27;45778;-84
2021/08/02 05:20:39;;;;;;;;;4.75;2.00;;;;;;;;5034706;27;45335;-84
2021/08/02 05:23:04;;;;;;;;;3.00;3.00;;;;;;;;5015509;27;47267;-84
2021/08/02 05:25:29;;;;;;;;;3.67;3.00;;;;;;;;5033027;28;45813;-84
2021/08/02 05:27:55;;;;;;;;;3.00;3.00;;;;;;;;5022157;27;45452;-82
2021/08/02 05:30:20;;;;;;;;;2.33;2.33;;;;;;;;5016352;27;45642;-83
2021/08/02 05:32:46;;;;;;;;;2.00;2.00;;;;;;;;5034749;27;45681;-84
2021/08/02 05:35:11;;;;;;;;;2.00;2.00;;;;;;;;5033514;27;45476;-84
2021/08/02 05:37:36;;;;;;;;;5.25;3.25;;;;;;;;5032999;27;45651;-82
2021/08/02 05:40:02;;;;;;;;;3.50;2.00;;;;;;;;5030568;27;45572;-84
2021/08/02 05:42:27;;;;;;;;;2.50;1.75;;;;;;;;5031015;27;45502;-82
2021/08/02 05:44:52;;;;;;;;;5.33;3.00;;;;;;;;5016049;27;45551;-82
2021/08/02 05:47:18;;;;;;;;;3.33;3.00;;;;;;;;5033133;27;45454;-82
2021/08/02 05:49:43;;;;;;;;;6.67;3.00;;;;;;;;5032591;28;45502;-83
2021/08/02 05:52:08;;;;;;;;;5.00;3.00;;;;;;;;5029140;27;46181;-84
2021/08/02 05:54:33;;;;;;;;;4.33;2.00;;;;;;;;5028219;27;45425;-84
2021/08/02 05:56:58;;;;;;;;;1.00;1.00;;;;;;;;5050552;28;45357;-84
2021/08/02 05:59:24;;;;;;;;;3.00;3.00;;;;;;;;5036076;27;45408;-85
2021/08/02 06:01:49;;;;;;;;;4.50;3.00;;;;;;;;5031573;28;45493;-85
2021/08/02 06:04:14;;;;;;;;;4.50;4.25;;;;;;;;5015968;27;45475;-83
2021/08/02 06:06:39;;;;;;;;;3.00;3.00;;;;;;;;5028916;28;45444;-82
2021/08/02 06:09:05;;;;;;;;;3.00;2.67;;;;;;;;5034692;28;45293;-83
2021/08/02 06:11:30;;;;;;;;;3.50;2.00;;;;;;;;5030383;27;46075;-84
2021/08/02 06:13:56;;;;;;;;;5.00;3.33;;;;;;;;5035268;28;45482;-84
2021/08/02 06:16:22;;;;;;;;;4.25;3.00;;;;;;;;5029315;28;45559;-82
2021/08/02 06:18:47;;;;;;;;;3.75;3.50;;;;;;;;5022968;27;45449;-83
2021/08/02 06:21:13;;;;;;;;;4.00;4.00;;;;;;;;5034615;27;45394;-82
2021/08/02 06:23:38;;;;;;;;;4.00;3.00;;;;;;;;5030480;27;45593;-84
2021/08/02 06:26:03;;;;;;;;;2.00;2.00;;;;;;;;5031850;27;45421;-83
2021/08/02 06:28:28;;;;;;;;;3.33;3.00;;;;;;;;5015901;28;45553;-84
2021/08/02 06:30:54;;;;;;;;;3.00;3.00;;;;;;;;5030429;27;48815;-83
2021/08/02 06:33:20;;;;;;;;;4.25;3.00;;;;;;;;5034668;27;45419;-83
2021/08/02 06:35:45;;;;;;;;;3.00;3.00;;;;;;;;5034381;27;45499;-84
2021/08/02 06:38:10;;;;;;;;;4.00;3.00;;;;;;;;5032329;27;45479;-84
2021/08/02 06:40:35;;;;;;;;;3.00;2.33;;;;;;;;5031054;28;46315;-82
2021/08/02 06:43:01;;;;;;;;;3.00;3.00;;;;;;;;5028853;27;45471;-83
2021/08/02 06:45:26;;;;;;;;;5.00;4.00;;;;;;;;5031744;27;45485;-84
2021/08/02 06:47:54;;;;;;;;;4.00;4.00;;;;;;;;5051299;28;45324;-83
2021/08/02 06:50:19;;;;;;;;;6.00;4.25;;;;;;;;5010744;27;46429;-83
2021/08/02 06:52:44;;;;;;;;;5.00;4.00;;;;;;;;5028817;28;45600;-82
2021/08/02 06:55:10;;;;;;;;;5.00;3.00;;;;;;;;5012060;27;45452;-81
2021/08/02 06:57:35;;;;;;;;;2.50;2.00;;;;;;;;5027488;27;45311;-83
2021/08/02 07:00:01;;;;;;;;;4.25;4.25;;;;;;;;5036578;27;45459;-83
2021/08/02 07:02:26;;;;;;;;;3.00;2.00;;;;;;;;5036110;27;45391;-82
2021/08/02 07:04:51;;;;;;;;;3.67;2.67;;;;;;;;5048675;28;45399;-83
2021/08/02 07:07:16;;;;;;;;;5.00;4.00;;;;;;;;5033538;27;45580;-82
2021/08/02 07:09:41;;;;;;;;;7.00;4.67;;;;;;;;5022575;27;45580;-79
2021/08/02 07:12:07;;;;;;;;;6.00;4.00;;;;;;;;5037368;27;45327;-82
2021/08/02 07:14:32;;;;;;;;;5.75;4.25;;;;;;;;5036021;27;45511;-83
2021/08/02 07:16:57;;;;;;;;;5.00;3.33;;;;;;;;5030395;27;45754;-82
2021/08/02 07:19:23;;;;;;;;;2.00;2.00;;;;;;;;5031091;28;45565;-83
2021/08/02 07:21:48;;;;;;;;;5.50;4.00;;;;;;;;5034924;27;45714;-83
2021/08/02 07:24:13;;;;;;;;;5.00;4.00;;;;;;;;5038303;28;45338;-82
2021/08/02 07:26:38;;;;;;;;;6.67;3.33;;;;;;;;5034215;27;45728;-83
2021/08/02 07:29:04;;;;;;;;;5.50;3.00;;;;;;;;5034491;27;45616;-83
2021/08/02 07:31:29;;;;;;;;;7.00;5.75;;;;;;;;5031808;28;45382;-88
2021/08/02 07:33:55;;;;;;;;;6.50;5.00;;;;;;;;5018089;27;45558;-81
2021/08/02 07:36:20;;;;;;;;;4.50;4.00;;;;;;;;5034319;27;45299;-82
2021/08/02 07:38:46;;;;;;;;;5.00;4.00;;;;;;;;5031680;27;45510;-80
2021/08/02 07:41:11;;;;;;;;;4.00;4.00;;;;;;;;5027194;27;45487;-80
2021/08/02 07:43:36;;;;;;;;;4.50;4.00;;;;;;;;5029879;28;45586;-82
2021/08/02 07:46:02;;;;;;;;;5.00;5.00;;;;;;;;5034424;27;45475;-81
2021/08/02 07:48:27;;;;;;;;;3.25;3.25;;;;;;;;5033585;27;45434;-83
2021/08/02 07:50:53;;;;;;;;;4.33;4.00;;;;;;;;5050459;28;45449;-81
2021/08/02 07:53:18;;;;;;;;;6.33;5.00;;;;;;;;5033968;27;45511;-81
2021/08/02 07:55:44;;;;;;;;;6.00;3.00;;;;;;;;5034819;28;45701;-81
2021/08/02 07:58:10;;;;;;;;;3.25;3.25;;;;;;;;5020636;27;46293;-81
2021/08/02 08:00:36;;;;;;;;;3.75;3.75;;;;;;;;5028697;28;45582;-81
2021/08/02 08:03:01;;;;;;;;;6.25;5.50;;;;;;;;5016851;28;45438;-85
2021/08/02 08:05:26;;;;;;;;;5.75;3.75;;;;;;;;5029125;27;45427;-80
2021/08/02 08:07:52;;;;;;;;;6.00;6.00;;;;;;;;5034175;28;45385;-81
2021/08/02 08:10:18;;;;;;;;;4.25;4.25;;;;;;;;5089064;27;45481;-82
2021/08/02 08:12:44;;;;;;;;;7.50;6.25;;;;;;;;5024050;28;45419;-84
2021/08/02 08:15:09;;;;;;;;;5.33;4.00;;;;;;;;5036486;27;45446;-82
2021/08/02 08:17:35;;;;;;;;;6.75;5.00;;;;;;;;5017271;27;46406;-82
2021/08/02 08:20:00;;;;;;;;;5.50;4.25;;;;;;;;5036242;27;45449;-82
2021/08/02 08:22:27;;;;;;;;;7.75;4.75;;;;;;;;5018015;28;45496;-89
2021/08/02 08:24:52;;;;;;;;;5.50;5.50;;;;;;;;5019626;27;45531;-90
2021/08/02 08:27:18;;;;;;;;;3.75;3.75;;;;;;;;5014383;27;46319;-88
2021/08/02 08:29:43;;;;;;;;;7.67;4.00;;;;;;;;5030247;27;45513;-88
2021/08/02 08:32:08;;;;;;;;;5.00;4.00;;;;;;;;5033373;28;45422;-91
2021/08/02 08:34:33;;;;;;;;;3.00;3.00;;;;;;;;5027942;28;45414;-90
2021/08/02 08:36:59;;;;;;;;;4.00;4.00;;;;;;;;5035265;27;45321;-90
2021/08/02 08:39:24;;;;;;;;;6.50;4.00;;;;;;;;5050264;27;45389;-88
2021/08/02 08:41:51;;;;;;;;;6.00;4.33;;;;;;;;5035525;27;45642;-86
2021/08/02 08:44:16;;;;;;;;;3.00;3.00;;;;;;;;5022392;27;45717;-88
2021/08/02 08:46:42;;;;;;;;;4.75;3.00;;;;;;;;5024097;28;47205;-87
2021/08/02 08:49:07;;;;;;;;;7.25;3.75;;;;;;;;5033580;27;45559;-88
2021/08/02 08:51:33;;;;;;;;;5.00;5.00;;;;;;;;5030927;27;46252;-86
2021/08/02 08:53:58;;;;;;;;;4.00;4.00;;;;;;;;5036287;27;45481;-83
2021/08/02 08:56:23;;;;;;;;;3.00;3.00;;;;;;;;5033628;27;46192;-87
2021/08/02 08:58:49;;;;;;;;;4.67;3.00;;;;;;;;5034305;28;45551;-87
2021/08/02 09:01:14;;;;;;;;;5.00;3.00;;;;;;;;5041619;27;45417;-92
2021/08/02 09:03:52;;;;;;;;;3.00;3.00;;;;;;;;5011745;27;45399;-87
2021/08/02 09:06:17;;;;;;;;;3.00;3.00;;;;;;;;5033297;27;45616;-89
2021/08/02 09:08:43;;;;;;;;;3.00;2.75;;;;;;;;5022007;27;45436;-82
2021/08/02 09:11:15;;;;;;;;;2.00;1.50;;;;;;;;5021481;27;45848;-86
2021/08/02 09:13:40;;;;;;;;;2.00;2.00;;;;;;;;5016097;27;45511;-85
2021/08/02 09:16:13;;;;;;;;;1.75;1.75;;;;;;;;5024033;28;46243;-87
2021/08/02 09:18:38;;;;;;;;;1.00;0.50;;;;;;;;5023181;27;45927;-86
2021/08/02 09:21:04;;;;;;;;;1.00;1.00;;;;;;;;5023046;27;45589;-89
2021/08/02 09:23:30;;;;;;;;;2.00;1.00;;;;;;;;5033241;28;45643;-87
2021/08/02 09:26:01;;;;;;;;;2.75;2.00;;;;;;;;5022146;28;47317;-86
2021/08/02 09:28:27;;;;;;;;;1.75;1.75;;;;;;;;5022929;28;45374;-86
2021/08/02 09:31:03;;;;;;;;;1.50;1.00;;;;;;;;5022672;27;45916;-88
2021/08/02 09:33:47;;;;;;;;;3.00;3.00;;;;;;;;5020987;27;45563;-88
2021/08/02 09:36:14;;;;;;;;;3.50;2.25;;;;;;;;5023575;27;45807;-87
2021/08/02 09:38:39;;;;;;;;;1.50;1.50;;;;;;;;5030182;27;45619;-86
2021/08/02 09:41:05;;;;;;;;;4.00;2.00;;;;;;;;5026999;27;45519;-88
2021/08/02 09:43:31;;;;;;;;;3.00;3.00;;;;;;;;5025364;28;45783;-87
2021/08/02 09:45:57;;;;;;;;;2.25;2.00;;;;;;;;5024673;27;45413;-88
2021/08/02 09:48:36;;;;;;;;;4.00;2.50;;;;;;;;5040969;28;45706;-87
2021/08/02 09:51:15;;;;;;;;;3.00;3.00;;;;;;;;5029482;27;45520;-84
2021/08/02 09:53:43;;;;;;;;;2.50;2.50;;;;;;;;5011346;27;45620;-86
2021/08/02 09:56:10;;;;;;;;;4.00;2.50;;;;;;;;5022668;27;46048;-90
2021/08/02 09:58:36;;;;;;;;;2.00;2.00;;;;;;;;5027617;28;45646;-90
2021/08/02 10:01:01;;;;;;;;;3.75;2.00;;;;;;;;5029903;27;45385;-88
2021/08/02 10:03:27;;;;;;;;;4.00;3.00;;;;;;;;5029268;27;45395;-89
2021/08/02 10:05:52;;;;;;;;;4.00;2.75;;;;;;;;5023955;27;45551;-90
2021/08/02 10:08:17;;;;;;;;;4.00;2.00;;;;;;;;5021438;27;45488;-86
2021/08/02 10:10:43;;;;;;;;;3.67;3.67;;;;;;;;5027283;28;45521;-88
2021/08/02 10:13:20;;;;;;;;;3.75;2.00;;;;;;;;5005930;27;45425;-88
2021/08/02 10:15:49;;;;;;;;;4.00;4.00;;;;;;;;5025629;27;45441;-87
2021/08/02 10:18:18;;;;;;;;;3.00;3.00;;;;;;;;5029150;27;45382;-83
2021/08/02 10:20:43;;;;;;;;;3.00;3.00;;;;;;;;5024671;27;45465;-88
2021/08/02 10:23:08;;;;;;;;;3.00;3.00;;;;;;;;5038221;27;45473;-87
2021/08/02 10:25:38;;;;;;;;;3.00;3.00;;;;;;;;5014681;28;46172;-89
2021/08/02 10:28:06;;;;;;;;;2.50;2.50;;;;;;;;5007632;27;45941;-89
2021/08/02 10:30:31;;;;;;;;;4.00;4.00;;;;;;;;5019634;27;45496;-88
2021/08/02 10:32:57;;;;;;;;;3.50;3.50;;;;;;;;5022134;27;46028;-79
2021/08/02 10:35:34;;;;;;;;;3.00;3.00;;;;;;;;5021311;27;45649;-81
2021/08/02 10:38:01;;;;;;;;;3.25;3.25;;;;;;;;5020736;27;49156;-80
2021/08/02 10:40:27;;;;;;;;;3.75;1.75;;;;;;;;5032835;27;45519;-81
2021/08/02 10:42:52;;;;;;;;;4.50;2.75;;;;;;;;5023576;27;45532;-80
2021/08/02 10:45:30;;;;;;;;;5.00;2.33;;;;;;;;5028888;27;45398;-80
2021/08/02 10:47:57;;;;;;;;;5.00;4.00;;;;;;;;5027258;27;45609;-82
2021/08/02 10:50:42;;;;;;;;;3.25;3.25;;;;;;;;5010627;27;45544;-87
2021/08/02 10:53:11;;;;;;;;;4.50;3.00;;;;;;;;5010958;27;45527;-83
2021/08/02 10:55:41;;;;;;;;;3.50;3.50;;;;;;;;5027967;28;46069;-83
2021/08/02 10:58:07;;;;;;;;;4.25;3.00;;;;;;;;5019431;27;45834;-83
2021/08/02 11:00:32;;;;;;;;;4.00;4.00;;;;;;;;5026812;27;46853;-82
2021/08/02 11:02:58;;;;;;;;;4.75;3.00;;;;;;;;5015627;27;45932;-83
2021/08/02 11:05:28;;;;;;;;;4.25;3.50;;;;;;;;5023525;27;45569;-83
2021/08/02 11:07:54;;;;;;;;;5.25;4.00;;;;;;;;5022410;27;45530;-81
2021/08/02 11:10:19;;;;;;;;;3.75;3.75;;;;;;;;5019213;27;45661;-82
2021/08/02 11:12:45;;;;;;;;;3.33;3.33;;;;;;;;5015340;27;45625;-80
2021/08/02 11:15:11;;;;;;;;;3.50;3.50;;;;;;;;5003590;27;47391;-81
2021/08/02 11:17:40;;;;;;;;;3.00;3.00;;;;;;;;5026170;27;45743;-81
2021/08/02 11:20:10;;;;;;;;;2.50;2.50;;;;;;;;5027168;27;45434;-81
2021/08/02 11:22:48;;;;;;;;;4.50;3.75;;;;;;;;5026068;28;45404;-82
2021/08/02 11:25:20;;;;;;;;;3.50;3.50;;;;;;;;5019232;27;46106;-80
2021/08/02 11:27:53;;;;;;;;;7.25;3.50;;;;;;;;5006555;27;45605;-79
2021/08/02 11:30:18;;;;;;;;;5.25;5.25;;;;;;;;5022454;27;45618;-83
2021/08/02 11:32:44;;;;;;;;;4.00;4.00;;;;;;;;5025210;27;45596;-82
2021/08/02 11:35:10;;;;;;;;;5.00;5.00;;;;;;;;5023436;27;46089;-81
2021/08/02 11:37:35;;;;;;;;;5.00;3.75;;;;;;;;5016878;28;45481;-82
2021/08/02 11:40:02;;;;;;;;;3.00;3.00;;;;;;;;5025588;27;45335;-82
2021/08/02 11:42:31;;;;;;;;;3.25;3.00;;;;;;;;5026736;27;45569;-82
2021/08/02 11:44:58;;;;;;;;;3.50;3.50;;;;;;;;5025538;27;46083;-81
2021/08/02 11:47:24;;;;;;;;;5.00;4.50;;;;;;;;5014764;27;45726;-82
2021/08/02 11:49:50;;;;;;;;;3.00;3.00;;;;;;;;5003604;28;45494;-82
2021/08/02 11:52:17;;;;;;;;;4.00;3.25;;;;;;;;5009344;27;45580;-83
2021/08/02 11:54:44;;;;;;;;;5.00;3.00;;;;;;;;5017443;27;45641;-82
2021/08/02 11:57:19;;;;;;;;;4.00;3.25;;;;;;;;5013739;27;45733;-82
2021/08/02 11:59:59;;;;;;;;;4.25;3.25;;;;;;;;5024478;27;48571;-82
2021/08/02 12:02:32;;;;;;;;;4.75;3.50;;;;;;;;5034012;28;45593;-83
2021/08/02 12:04:58;;;;;;;;;6.75;5.75;;;;;;;;5019448;27;46707;-83
2021/08/02 12:07:24;;;;;;;;;4.00;3.00;;;;;;;;5004962;28;45734;-83
2021/08/02 12:09:50;;;;;;;;;4.00;3.00;;;;;;;;5020435;27;46222;-82
2021/08/02 12:12:20;;;;;;;;;5.50;3.50;;;;;;;;5020099;27;45452;-82
2021/08/02 12:14:45;;;;;;;;;3.75;2.75;;;;;;;;5015032;27;45485;-81
2021/08/02 12:17:11;;;;;;;;;3.00;3.00;;;;;;;;5038880;27;45477;-80
2021/08/02 12:19:42;;;;;;;;;3.67;3.67;;;;;;;;5021527;28;45475;-83
2021/08/02 12:22:08;;;;;;;;;2.00;2.00;;;;;;;;5021717;28;45511;-83
2021/08/02 12:24:33;;;;;;;;;0.50;0.50;;;;;;;;5000028;28;47173;-83
2021/08/02 12:26:58;;;;;;;;;2.00;2.00;;;;;;;;5029784;27;45385;-84
2021/08/02 12:29:25;;;;;;;;;1.00;1.00;;;;;;;;5020996;27;45459;-84
2021/08/02 12:31:54;;;;;;;;;0.25;0.25;;;;;;;;5008537;28;45584;-83
2021/08/02 12:34:19;;;;;;;;;1.75;1.75;;;;;;;;5042909;28;48635;-84
2021/08/02 12:36:45;;;;;;;;;1.00;1.00;;;;;;;;5024268;27;45481;-83
2021/08/02 12:39:10;;;;;;;;;3.00;2.33;;;;;;;;5037232;28;45567;-84
2021/08/02 12:41:36;;;;;;;;;2.67;1.67;;;;;;;;5039028;27;45651;-84
2021/08/02 12:44:01;;;;;;;;;1.75;1.75;;;;;;;;5052274;27;45863;-84
2021/08/02 12:46:26;;;;;;;;;0.75;0.75;;;;;;;;5031986;28;45758;-83
2021/08/02 12:48:51;;;;;;;;;1.67;1.67;;;;;;;;5028360;27;45966;-84
2021/08/02 12:51:18;;;;;;;;;2.67;2.67;;;;;;;;5028262;27;45357;-84
2021/08/02 12:53:45;;;;;;;;;3.25;2.75;;;;;;;;5022669;27;45794;-83
2021/08/02 12:56:10;;;;;;;;;2.25;2.25;;;;;;;;5021388;27;45741;-84
2021/08/02 12:58:35;;;;;;;;;2.50;2.00;;;;;;;;5019929;28;45757;-83
2021/08/02 13:01:00;;;;;;;;;2.00;2.00;;;;;;;;5021337;27;45468;-83
2021/08/02 13:03:26;;;;;;;;;2.00;2.00;;;;;;;;5002627;27;47641;-82
2021/08/02 13:05:51;;;;;;;;;1.25;1.25;;;;;;;;5041266;28;45454;-83
2021/08/02 13:08:16;;;;;;;;;2.25;2.25;;;;;;;;5010596;27;45600;-82
2021/08/02 13:10:41;;;;;;;;;3.00;3.00;;;;;;;;5042902;28;45844;-82
2021/08/02 13:13:07;;;;;;;;;4.25;3.00;;;;;;;;5042372;28;47244;-84
2021/08/02 13:15:32;;;;;;;;;5.00;2.00;;;;;;;;5043757;28;45706;-85
2021/08/02 13:17:57;;;;;;;;;4.00;2.00;;;;;;;;5009424;27;45597;-85
2021/08/02 13:20:22;;;;;;;;;3.00;3.00;;;;;;;;5024578;27;45555;-83
2021/08/02 13:22:53;;;;;;;;;3.00;3.00;;;;;;;;5035774;27;46540;-85
2021/08/02 13:28:03;;;;;;;;;4.50;1.00;;;;;;;;5027349;27;45286;-85
2021/08/02 13:30:28;;;;;;;;;4.50;3.25;;;;;;;;5027963;27;45419;-86
2021/08/02 13:32:53;;;;;;;;;4.67;4.00;;;;;;;;5005820;27;46083;-85
2021/08/02 13:35:18;;;;;;;;;3.67;3.67;;;;;;;;5020289;27;45476;-83
2021/08/02 13:37:43;;;;;;;;;2.75;2.75;;;;;;;;5039268;28;45360;-83
2021/08/02 13:40:09;;;;;;;;;4.33;4.33;;;;;;;;5047568;27;45375;-84
2021/08/02 13:42:34;;;;;;;;;3.25;3.25;;;;;;;;5010552;27;48375;-84
2021/08/02 13:44:59;;;;;;;;;3.67;3.00;;;;;;;;5025080;27;45424;-89
2021/08/02 13:47:27;;;;;;;;;4.00;4.00;;;;;;;;5020585;27;45465;-92
2021/08/02 13:49:53;;;;;;;;;6.75;5.00;;;;;;;;5028432;28;45444;-89
2021/08/02 13:52:18;;;;;;;;;3.00;3.00;;;;;;;;5023229;27;46536;-87
2021/08/02 13:54:43;;;;;;;;;8.00;4.00;;;;;;;;5026219;27;45428;-90
2021/08/02 13:57:10;;;;;;;;;4.00;4.00;;;;;;;;5021120;27;45539;-91
2021/08/02 13:59:36;;;;;;;;;5.00;4.50;;;;;;;;5014452;27;45498;-90
2021/08/02 14:02:01;;;;;;;;;3.00;3.00;;;;;;;;5029441;27;45351;-91
2021/08/02 14:04:26;;;;;;;;;4.25;2.50;;;;;;;;5023377;27;45473;-91
2021/08/02 14:06:51;;;;;;;;;6.00;4.00;;;;;;;;5020014;27;45456;-90
2021/08/02 14:09:17;;;;;;;;;3.00;3.00;;;;;;;;5039077;27;45500;-90
2021/08/02 14:11:47;;;;;;;;;5.00;3.00;;;;;;;;5027466;27;46683;-90
2021/08/02 14:14:13;;;;;;;;;2.75;2.00;;;;;;;;5012604;27;45519;-89
2021/08/02 14:16:41;;;;;;;;;3.00;3.00;;;;;;;;5019678;28;45354;-90
2021/08/02 14:19:10;;;;;;;;;3.25;3.25;;;;;;;;5015775;27;45485;-90
2021/08/02 14:21:36;;;;;;;;;5.75;4.00;;;;;;;;5021633;27;47449;-91
2021/08/02 14:24:02;;;;;;;;;3.25;3.25;;;;;;;;5027996;27;45516;-90
2021/08/02 14:26:28;;;;;;;;;3.00;3.00;;;;;;;;5014466;27;45481;-89
2021/08/02 14:28:54;;;;;;;;;3.50;2.00;;;;;;;;5024262;28;45285;-90
2021/08/02 14:31:19;;;;;;;;;5.00;2.00;;;;;;;;5049871;27;46172;-87
2021/08/02 14:33:45;;;;;;;;;4.00;4.00;;;;;;;;5042755;28;50496;-89
2021/08/02 14:36:11;;;;;;;;;3.25;3.25;;;;;;;;5027551;27;45570;-89
2021/08/02 14:38:39;;;;;;;;;4.75;2.00;;;;;;;;5022969;27;45659;-88
2021/08/02 14:41:04;;;;;;;;;4.25;3.00;;;;;;;;5021374;27;45492;-86
2021/08/02 14:43:30;;;;;;;;;3.00;3.00;;;;;;;;5024047;28;45396;-90